Time;durP1;ratioP1;P1;durP2;ratioP2;P2;SDS_P1;SDS_P2;PMS_P1;PMS_P2;Temp;Humidity;BMP_temperature;BMP_pressure;BME280_temperature;BME280_humidity;BME280_pressure;Samples;Min_cycle;Max_cycle;Signal;HPM_P1;HPM_P2
2024/04/04 00:01:09;;;;;;;7.53;2.03;;;;;;;-146.04;100.00;56920.13;4964072;28;20188;-71
2024/04/04 00:03:38;;;;;;;12.20;2.60;;;;;;;-146.04;100.00;56920.13;4968299;28;20614;-70
2024/04/04 00:06:04;;;;;;;11.93;2.20;;;;;;;-146.04;100.00;56920.13;4967410;28;20192;-71
2024/04/04 00:08:30;;;;;;;10.00;3.00;;;;;;;-146.04;100.00;56920.13;4966812;28;20196;-72
2024/04/04 00:10:58;;;;;;;9.57;2.10;;;;;;;-146.04;100.00;56920.13;4971547;28;20220;-71
2024/04/04 00:13:24;;;;;;;6.57;2.23;;;;;;;-146.04;100.00;56920.13;4967125;28;20189;-71
2024/04/04 00:15:50;;;;;;;9.97;1.83;;;;;;;-146.04;100.00;56920.13;4971901;28;20231;-71
2024/04/04 00:18:15;;;;;;;9.97;1.97;;;;;;;-146.04;100.00;56920.13;4957883;28;20287;-71
2024/04/04 00:20:41;;;;;;;5.60;1.93;;;;;;;-146.04;100.00;56920.13;4961823;28;20185;-71
2024/04/04 00:23:06;;;;;;;6.53;1.93;;;;;;;-146.04;100.00;56920.13;4969085;28;20192;-71
2024/04/04 00:25:33;;;;;;;6.67;1.77;;;;;;;-146.04;100.00;56920.13;4964129;28;20193;-71
2024/04/04 00:27:58;;;;;;;6.67;2.17;;;;;;;-146.04;100.00;56920.13;4967799;28;20680;-71
2024/04/04 00:30:24;;;;;;;6.63;1.70;;;;;;;-146.04;100.00;56920.13;4969909;28;20188;-71
2024/04/04 00:32:49;;;;;;;13.93;2.07;;;;;;;-146.04;100.00;56920.13;4968730;28;20255;-71
2024/04/04 00:35:15;;;;;;;7.90;1.87;;;;;;;-146.04;100.00;56920.13;4964741;28;20755;-71
2024/04/04 00:37:43;;;;;;;7.47;2.57;;;;;;;-146.04;100.00;56920.13;4959224;28;20211;-71
2024/04/04 00:40:09;;;;;;;5.73;2.03;;;;;;;-146.04;100.00;56920.13;4963826;28;20192;-70
2024/04/04 00:42:34;;;;;;;8.67;2.73;;;;;;;-146.04;100.00;56920.13;4968677;28;20208;-70
2024/04/04 00:45:00;;;;;;;8.77;1.97;;;;;;;-146.04;100.00;56920.13;4969054;28;20250;-71
2024/04/04 00:47:25;;;;;;;8.57;2.10;;;;;;;-146.04;100.00;56920.13;4970887;28;20215;-71
2024/04/04 00:49:51;;;;;;;8.87;1.70;;;;;;;-146.04;100.00;56920.13;4963227;28;20555;-70
2024/04/04 00:52:17;;;;;;;6.10;1.70;;;;;;;-146.04;100.00;56920.13;4968781;28;20643;-71
2024/04/04 00:54:45;;;;;;;9.90;1.77;;;;;;;-146.04;100.00;56920.13;4964816;28;20200;-72
2024/04/04 00:57:10;;;;;;;8.23;1.67;;;;;;;-146.04;100.00;56920.13;4964322;28;20216;-70
2024/04/04 00:59:37;;;;;;;7.83;3.00;;;;;;;-146.04;100.00;56920.13;4962504;28;20196;-70
2024/04/04 01:02:03;;;;;;;6.67;2.13;;;;;;;-146.04;100.00;56920.13;4962693;28;20191;-70
2024/04/04 01:04:28;;;;;;;5.57;1.43;;;;;;;-146.04;100.00;56920.13;4963154;28;20189;-70
2024/04/04 01:06:54;;;;;;;5.60;1.50;;;;;;;-146.04;100.00;56920.13;4961234;28;20223;-71
2024/04/04 01:09:19;;;;;;;8.07;2.43;;;;;;;-146.04;100.00;56920.13;4961855;28;20196;-70
2024/04/04 01:11:44;;;;;;;6.73;1.90;;;;;;;-146.04;100.00;56920.13;4966253;28;20184;-71
2024/04/04 01:14:11;;;;;;;8.73;2.33;;;;;;;-146.04;100.00;56920.13;4961414;28;20243;-71
2024/04/04 01:16:36;;;;;;;6.80;2.23;;;;;;;-146.04;100.00;56920.13;4958229;28;20215;-71
2024/04/04 01:19:01;;;;;;;7.97;1.90;;;;;;;-146.04;100.00;56920.13;4961881;28;20639;-71
2024/04/04 01:21:27;;;;;;;8.97;1.67;;;;;;;-146.04;100.00;56920.13;4987659;23;20243;-69
2024/04/04 01:23:52;;;;;;;7.33;1.93;;;;;;;-146.04;100.00;56920.13;4970859;28;20282;-69
2024/04/04 01:26:17;;;;;;;6.93;2.07;;;;;;;-146.04;100.00;56920.13;4969628;28;20646;-68
2024/04/04 01:28:44;;;;;;;11.10;1.80;;;;;;;-146.04;100.00;56920.13;4970730;28;20180;-68
2024/04/04 01:31:10;;;;;;;10.87;2.10;;;;;;;-146.04;100.00;56920.13;4965272;28;20791;-68
2024/04/04 01:33:35;;;;;;;5.80;2.20;;;;;;;-146.04;100.00;56920.13;4965134;28;20330;-68
2024/04/04 01:36:01;;;;;;;6.80;1.87;;;;;;;-146.04;100.00;56920.13;4976779;28;20255;-69
2024/04/04 01:38:26;;;;;;;10.33;2.53;;;;;;;-146.04;100.00;56920.13;4970208;28;20629;-69
2024/04/04 01:40:53;;;;;;;7.13;2.40;;;;;;;-146.04;100.00;56920.13;4971577;28;20286;-69
2024/04/04 01:43:18;;;;;;;6.70;2.57;;;;;;;-146.04;100.00;56920.13;4960175;28;20203;-69
2024/04/04 01:45:43;;;;;;;14.73;3.23;;;;;;;-146.04;100.00;56920.13;4978558;28;20192;-69
2024/04/04 01:48:09;;;;;;;5.97;1.97;;;;;;;-146.04;100.00;56920.13;4966505;28;20671;-68
2024/04/04 01:50:34;;;;;;;5.70;2.73;;;;;;;-146.04;100.00;56920.13;4963755;28;20224;-69
2024/04/04 01:52:59;;;;;;;13.53;2.30;;;;;;;-146.04;100.00;56920.13;4968733;28;20251;-69
2024/04/04 01:55:29;;;;;;;10.00;2.33;;;;;;;-146.04;100.00;56920.13;4970360;28;20208;-69
2024/04/04 01:57:55;;;;;;;4.90;2.10;;;;;;;-146.04;100.00;56920.13;4968879;28;20200;-69
2024/04/04 02:00:20;;;;;;;9.10;2.47;;;;;;;-146.04;100.00;56920.13;4963052;28;20208;-69
2024/04/04 02:02:45;;;;;;;5.93;2.10;;;;;;;-146.04;100.00;56920.13;4971596;28;20254;-69
2024/04/04 02:05:10;;;;;;;7.43;2.63;;;;;;;-146.04;100.00;56920.13;4970413;28;20950;-69
2024/04/04 02:07:36;;;;;;;9.70;2.23;;;;;;;-146.04;100.00;56920.13;4971661;28;20689;-69
2024/04/04 02:10:04;;;;;;;10.30;2.13;;;;;;;-146.04;100.00;56920.13;4971780;28;20738;-68
2024/04/04 02:12:29;;;;;;;10.47;2.37;;;;;;;-146.04;100.00;56920.13;4970895;28;20216;-68
2024/04/04 02:14:55;;;;;;;7.53;2.20;;;;;;;-146.04;100.00;56920.13;4971562;28;20710;-68
2024/04/04 02:17:20;;;;;;;8.23;2.00;;;;;;;-146.04;100.00;56920.13;4972850;28;20200;-68
2024/04/04 02:19:45;;;;;;;10.13;2.27;;;;;;;-146.04;100.00;56920.13;4965501;28;20412;-68
2024/04/04 02:22:11;;;;;;;8.97;3.37;;;;;;;-146.04;100.00;56920.13;4965950;28;20216;-68
2024/04/04 02:24:36;;;;;;;9.57;2.13;;;;;;;-146.04;100.00;56920.13;4966783;28;20195;-67
2024/04/04 02:27:02;;;;;;;7.53;1.87;;;;;;;-146.04;100.00;56920.13;4971888;28;20302;-69
2024/04/04 02:29:27;;;;;;;5.43;1.97;;;;;;;-146.04;100.00;56920.13;4975479;28;20216;-67
2024/04/04 02:31:52;;;;;;;6.30;1.80;;;;;;;-146.04;100.00;56920.13;4973642;28;20212;-67
2024/04/04 02:34:18;;;;;;;8.03;2.10;;;;;;;-146.04;100.00;56920.13;4976590;28;20187;-68
2024/04/04 02:36:44;;;;;;;8.63;2.13;;;;;;;-146.04;100.00;56920.13;4975606;28;20192;-67
2024/04/04 02:39:15;;;;;;;7.67;1.80;;;;;;;-146.04;100.00;56920.13;4976289;28;20660;-68
2024/04/04 02:41:40;;;;;;;7.27;2.17;;;;;;;-146.04;100.00;56920.13;4967885;28;20207;-67
2024/04/04 02:44:06;;;;;;;6.97;2.00;;;;;;;-146.04;100.00;56920.13;4969206;28;20199;-69
2024/04/04 02:46:32;;;;;;;4.00;1.83;;;;;;;-146.04;100.00;56920.13;4971514;28;20192;-68
2024/04/04 02:48:57;;;;;;;9.23;1.73;;;;;;;-146.04;100.00;56920.13;4974003;28;20199;-69
2024/04/04 02:51:23;;;;;;;7.23;2.27;;;;;;;-146.04;100.00;56920.13;4973654;28;20208;-69
2024/04/04 02:53:48;;;;;;;7.17;2.10;;;;;;;-146.04;100.00;56920.13;4971369;28;20188;-69
2024/04/04 02:56:14;;;;;;;8.43;1.80;;;;;;;-146.04;100.00;56920.13;4976739;28;20211;-69
2024/04/04 02:58:39;;;;;;;6.00;1.97;;;;;;;-146.04;100.00;56920.13;4976198;28;20184;-69
2024/04/04 03:01:05;;;;;;;7.37;2.20;;;;;;;-146.04;100.00;56920.13;4962945;28;20224;-68
2024/04/04 03:03:30;;;;;;;7.23;3.17;;;;;;;-146.04;100.00;56920.13;4970143;28;20211;-66
2024/04/04 03:05:56;;;;;;;7.07;2.23;;;;;;;-146.04;100.00;56920.13;4974025;28;20188;-69
2024/04/04 03:08:22;;;;;;;7.00;1.67;;;;;;;-146.04;100.00;56920.13;4973596;28;20191;-69
2024/04/04 03:10:47;;;;;;;4.63;1.90;;;;;;;-146.04;100.00;56920.13;4972523;28;20291;-68
2024/04/04 03:13:13;;;;;;;5.67;2.10;;;;;;;-146.04;100.00;56920.13;4980498;28;20215;-69
2024/04/04 03:15:38;;;;;;;8.47;2.00;;;;;;;-146.04;100.00;56920.13;4974626;28;20302;-69
2024/04/04 03:18:04;;;;;;;9.47;2.27;;;;;;;-146.04;100.00;56920.13;4973817;28;20196;-68
2024/04/04 03:20:29;;;;;;;7.93;2.20;;;;;;;-146.04;100.00;56920.13;4969555;28;20215;-67
2024/04/04 03:22:57;;;;;;;10.67;1.97;;;;;;;-146.04;100.00;56920.13;4972780;28;20192;-70
2024/04/04 03:25:22;;;;;;;6.40;2.90;;;;;;;-146.04;100.00;56920.13;4977987;28;20236;-70
2024/04/04 03:27:47;;;;;;;2.33;1.60;;;;;;;-146.04;100.00;56920.13;4974770;28;20215;-69
2024/04/04 03:30:12;;;;;;;8.20;2.77;;;;;;;-146.04;100.00;56920.13;4982378;28;20196;-70
2024/04/04 03:32:38;;;;;;;7.20;1.70;;;;;;;-146.04;100.00;56920.13;4979559;28;20184;-67
2024/04/04 03:35:04;;;;;;;7.80;2.37;;;;;;;-146.04;100.00;56920.13;4976705;28;20208;-70
2024/04/04 03:37:31;;;;;;;13.27;2.33;;;;;;;-146.04;100.00;56920.13;4973641;28;20188;-70
2024/04/04 03:39:56;;;;;;;6.67;2.17;;;;;;;-146.04;100.00;56920.13;4980146;28;20238;-69
2024/04/04 03:42:22;;;;;;;8.17;2.37;;;;;;;-146.04;100.00;56920.13;4977659;28;20201;-70
2024/04/04 03:44:50;;;;;;;3.97;1.80;;;;;;;-146.04;100.00;56920.13;4991153;28;20180;-70
2024/04/04 03:47:16;;;;;;;7.27;2.30;;;;;;;-146.04;100.00;56920.13;4975135;28;20683;-69
2024/04/04 03:49:41;;;;;;;5.97;2.23;;;;;;;-146.04;100.00;56920.13;4976788;28;20275;-69
2024/04/04 03:52:06;;;;;;;7.80;2.17;;;;;;;-146.04;100.00;56920.13;4975930;28;20278;-69
2024/04/04 03:54:32;;;;;;;5.30;2.40;;;;;;;-146.04;100.00;56920.13;4972231;28;20262;-69
2024/04/04 03:56:57;;;;;;;10.63;3.33;;;;;;;-146.04;100.00;56920.13;4971095;28;20259;-68
2024/04/04 03:59:23;;;;;;;13.37;3.50;;;;;;;-146.04;100.00;56920.13;4968556;28;20195;-69
2024/04/04 04:01:48;;;;;;;7.67;3.00;;;;;;;-146.04;100.00;56920.13;4969371;28;20220;-69
2024/04/04 04:04:14;;;;;;;5.87;2.80;;;;;;;-146.04;100.00;56920.13;4966755;28;20723;-68
2024/04/04 04:06:39;;;;;;;4.83;3.10;;;;;;;-146.04;100.00;56920.13;4973093;28;20200;-70
2024/04/04 04:09:04;;;;;;;6.40;3.20;;;;;;;-146.04;100.00;56920.13;4975549;28;20200;-69
2024/04/04 04:11:30;;;;;;;6.13;3.43;;;;;;;-146.04;100.00;56920.13;4972617;28;20216;-70
2024/04/04 04:13:56;;;;;;;4.20;3.10;;;;;;;-146.04;100.00;56920.13;4971130;28;20192;-69
2024/04/04 04:16:21;;;;;;;5.17;3.43;;;;;;;-146.04;100.00;56920.13;4971908;28;20265;-69
2024/04/04 04:18:49;;;;;;;7.43;4.00;;;;;;;-146.04;100.00;56920.13;4967958;28;20205;-69
2024/04/04 04:21:20;;;;;;;6.70;3.87;;;;;;;-146.04;100.00;56920.13;4970897;28;20315;-70
2024/04/04 04:23:49;;;;;;;11.37;3.90;;;;;;;-146.04;100.00;56920.13;4974837;28;20271;-67
2024/04/04 04:26:16;;;;;;;10.97;3.87;;;;;;;-146.04;100.00;56920.13;4983290;28;20238;-69
2024/04/04 04:28:42;;;;;;;4.53;4.03;;;;;;;-146.04;100.00;56920.13;4971134;28;20203;-69
2024/04/04 04:31:32;;;;;;;5.00;3.77;;;;;;;-146.04;100.00;56920.13;4975121;28;20222;-69
2024/04/04 04:34:00;;;;;;;4.57;3.90;;;;;;;-146.04;100.00;56920.13;4973199;28;20188;-69
2024/04/04 04:36:27;;;;;;;7.03;4.27;;;;;;;-146.04;100.00;56920.13;4970316;28;20698;-69
2024/04/04 04:38:53;;;;;;;6.05;4.15;;;;;;;-146.04;100.00;56920.13;4970521;28;20727;-70
2024/04/04 04:41:20;;;;;;;7.27;4.97;;;;;;;-146.04;100.00;56920.13;4972634;28;20290;-69
2024/04/04 04:43:46;;;;;;;6.43;4.25;;;;;;;-146.04;100.00;56920.13;4971370;28;20195;-70
2024/04/04 04:46:12;;;;;;;12.30;5.57;;;;;;;-146.04;100.00;56920.13;4972123;28;20771;-70
2024/04/04 04:48:38;;;;;;;11.67;4.90;;;;;;;-146.04;100.00;56920.13;4971666;28;20271;-69
2024/04/04 04:51:03;;;;;;;8.30;4.80;;;;;;;-146.04;100.00;56920.13;4969257;28;20453;-70
2024/04/04 04:53:29;;;;;;;6.20;5.07;;;;;;;-146.04;100.00;56920.13;4966939;28;20189;-69
2024/04/04 04:55:54;;;;;;;8.07;5.40;;;;;;;-146.04;100.00;56920.13;4971901;28;20208;-69
2024/04/04 04:58:20;;;;;;;8.23;5.22;;;;;;;-146.04;100.00;56920.13;4966590;28;20188;-69
2024/04/04 05:00:46;;;;;;;7.07;5.47;;;;;;;-146.04;100.00;56920.13;4970241;28;20208;-69
2024/04/04 05:03:12;;;;;;;6.45;4.82;;;;;;;-146.04;100.00;56920.13;4973713;28;20195;-68
2024/04/04 05:05:37;;;;;;;9.57;6.10;;;;;;;-146.04;100.00;56920.13;4971492;28;20180;-70
2024/04/04 05:08:03;;;;;;;8.67;6.27;;;;;;;-146.04;100.00;56920.13;4973819;28;20211;-68
2024/04/04 05:10:30;;;;;;;9.00;5.93;;;;;;;-146.04;100.00;56920.13;4974120;28;20214;-69
2024/04/04 05:12:55;;;;;;;8.45;6.95;;;;;;;-146.04;100.00;56920.13;4972181;28;20246;-69
2024/04/04 05:15:21;;;;;;;10.93;7.18;;;;;;;-146.04;100.00;56920.13;4965779;28;20699;-69
2024/04/04 05:17:46;;;;;;;10.33;7.17;;;;;;;-146.04;100.00;56920.13;4968398;28;20579;-69
2024/04/04 05:20:13;;;;;;;10.87;7.27;;;;;;;-146.04;100.00;56920.13;4969385;28;20183;-68
2024/04/04 05:22:42;;;;;;;10.27;6.60;;;;;;;-146.04;100.00;56920.13;4974820;28;20199;-69
2024/04/04 05:25:08;;;;;;;12.55;6.97;;;;;;;-146.04;100.00;56920.13;4967386;28;20258;-70
2024/04/04 05:27:34;;;;;;;13.68;7.32;;;;;;;-146.04;100.00;56920.13;4968752;28;20241;-69
2024/04/04 05:30:07;;;;;;;10.83;6.17;;;;;;;-146.04;100.00;56920.13;4980894;28;20734;-69
2024/04/04 05:32:33;;;;;;;10.95;6.78;;;;;;;-146.04;100.00;56920.13;4976326;28;20180;-69
2024/04/04 05:34:58;;;;;;;9.27;6.53;;;;;;;-146.04;100.00;56920.13;4968437;28;20208;-70
2024/04/04 05:37:23;;;;;;;10.38;6.30;;;;;;;-146.04;100.00;56920.13;4972126;28;20775;-69
2024/04/04 05:39:48;;;;;;;11.07;5.88;;;;;;;-146.04;100.00;56920.13;4972612;28;20694;-69
2024/04/04 05:42:14;;;;;;;9.02;5.45;;;;;;;-146.04;100.00;56920.13;4964177;28;20687;-69
2024/04/04 05:44:39;;;;;;;8.95;5.72;;;;;;;-146.04;100.00;56920.13;4966882;28;20187;-69
2024/04/04 05:47:04;;;;;;;7.60;4.97;;;;;;;-146.04;100.00;56920.13;4971454;28;20200;-69
2024/04/04 05:49:30;;;;;;;6.50;3.90;;;;;;;-146.04;100.00;56920.13;4973660;28;20712;-70
2024/04/04 05:51:56;;;;;;;7.75;4.53;;;;;;;-146.04;100.00;56920.13;4968238;28;20207;-68
2024/04/04 05:54:22;;;;;;;6.28;4.47;;;;;;;-146.04;100.00;56920.13;4975166;28;20187;-70
2024/04/04 05:56:47;;;;;;;9.32;3.85;;;;;;;-146.04;100.00;56920.13;4967965;28;20208;-69
2024/04/04 05:59:13;;;;;;;5.90;3.30;;;;;;;-146.04;100.00;56920.13;4967622;28;20180;-69
2024/04/04 06:01:38;;;;;;;6.80;3.15;;;;;;;-146.04;100.00;56920.13;4961625;28;20211;-71
2024/04/04 06:04:03;;;;;;;6.30;2.63;;;;;;;-146.04;100.00;56920.13;4969029;28;20319;-69
2024/04/04 06:06:29;;;;;;;3.97;2.75;;;;;;;-146.04;100.00;56920.13;4972247;28;20719;-67
2024/04/04 06:08:55;;;;;;;3.63;2.47;;;;;;;-146.04;100.00;56920.13;4973570;28;20507;-70
2024/04/04 06:11:20;;;;;;;6.07;2.80;;;;;;;-146.04;100.00;56920.13;4976697;28;20695;-70
2024/04/04 06:13:46;;;;;;;3.35;2.42;;;;;;;-146.04;100.00;56920.13;4979336;28;20207;-70
2024/04/04 06:16:11;;;;;;;3.53;2.45;;;;;;;-146.04;100.00;56920.13;4971826;28;20240;-70
2024/04/04 06:18:36;;;;;;;3.92;2.47;;;;;;;-146.04;100.00;56920.13;4974391;28;20194;-70
2024/04/04 06:21:02;;;;;;;3.72;2.78;;;;;;;-146.04;100.00;56920.13;4972777;28;20216;-70
2024/04/04 06:23:29;;;;;;;4.53;2.88;;;;;;;-146.04;100.00;56920.13;4972494;28;20275;-71
2024/04/04 06:25:54;;;;;;;5.15;2.10;;;;;;;-146.04;100.00;56920.13;4975502;28;20177;-69
2024/04/04 06:28:20;;;;;;;4.68;2.75;;;;;;;-146.04;100.00;56920.13;4975478;28;20210;-69
2024/04/04 06:30:45;;;;;;;4.10;2.65;;;;;;;-146.04;100.00;56920.13;4972673;28;20200;-69
2024/04/04 06:33:11;;;;;;;4.03;3.00;;;;;;;-146.04;100.00;56920.13;4977291;28;20184;-70
2024/04/04 06:35:36;;;;;;;3.42;2.55;;;;;;;-146.04;100.00;56920.13;4968356;28;20232;-70
2024/04/04 06:38:01;;;;;;;4.03;2.88;;;;;;;-146.04;100.00;56920.13;4972537;28;20211;-69
2024/04/04 06:40:29;;;;;;;5.47;3.22;;;;;;;-146.04;100.00;56920.13;4966978;28;20687;-70
2024/04/04 06:42:54;;;;;;;4.93;3.15;;;;;;;-146.04;100.00;56920.13;4966236;28;20183;-70
2024/04/04 06:45:20;;;;;;;6.03;2.95;;;;;;;-146.04;100.00;56920.13;4965475;28;20185;-69
2024/04/04 06:47:55;;;;;;;7.45;2.80;;;;;;;-146.04;100.00;56920.13;4966956;28;20192;-68
2024/04/04 06:50:20;;;;;;;5.35;2.92;;;;;;;-146.04;100.00;56920.13;4966536;28;20244;-69
2024/04/04 06:52:46;;;;;;;5.15;3.30;;;;;;;-146.04;100.00;56920.13;4968185;28;20211;-69
2024/04/04 06:55:11;;;;;;;8.77;3.15;;;;;;;-146.04;100.00;56920.13;4966108;28;20342;-69
2024/04/04 06:57:36;;;;;;;6.55;3.63;;;;;;;-146.04;100.00;56920.13;4965329;28;20215;-69
2024/04/04 07:00:02;;;;;;;6.97;2.97;;;;;;;-146.04;100.00;56920.13;4961228;28;20184;-69
2024/04/04 07:02:27;;;;;;;8.18;3.67;;;;;;;-146.04;100.00;56920.13;4966007;28;20307;-69
2024/04/04 07:04:53;;;;;;;7.63;3.30;;;;;;;-146.04;100.00;56920.13;4966719;28;20298;-69
2024/04/04 07:07:18;;;;;;;6.18;3.05;;;;;;;-146.04;100.00;56920.13;4966884;28;20192;-70
2024/04/04 07:09:43;;;;;;;11.75;2.90;;;;;;;-146.04;100.00;56920.13;4965528;28;20250;-70
2024/04/04 07:12:09;;;;;;;11.10;3.92;;;;;;;-146.04;100.00;56920.13;4967670;28;20211;-69
2024/04/04 07:14:35;;;;;;;10.30;3.25;;;;;;;-146.04;100.00;56920.13;4966113;28;20208;-69
2024/04/04 07:17:00;;;;;;;5.97;3.03;;;;;;;-146.04;100.00;56920.13;4967236;28;20200;-70
2024/04/04 07:19:26;;;;;;;8.48;2.55;;;;;;;-146.04;100.00;56920.13;4962540;28;20196;-70
2024/04/04 07:21:52;;;;;;;5.40;3.35;;;;;;;-146.04;100.00;56920.13;4983420;23;20695;-72
2024/04/04 07:24:17;;;;;;;6.15;2.85;;;;;;;-146.04;100.00;56920.13;4970147;28;20742;-73
2024/04/04 07:26:48;;;;;;;5.82;2.65;;;;;;;-146.04;100.00;56920.13;4969320;28;20651;-73
2024/04/04 07:29:14;;;;;;;6.53;3.97;;;;;;;-146.04;100.00;56920.13;4966487;28;20192;-74
2024/04/04 07:31:39;;;;;;;8.43;3.97;;;;;;;-146.04;100.00;56920.13;4967985;28;20192;-73
2024/04/04 07:34:05;;;;;;;10.90;4.60;;;;;;;-146.04;100.00;56920.13;4965561;28;21150;-74
2024/04/04 07:36:30;;;;;;;5.20;3.33;;;;;;;-146.04;100.00;56920.13;4970194;28;20200;-75
2024/04/04 07:38:55;;;;;;;10.15;4.13;;;;;;;-146.04;100.00;56920.13;4971970;28;20188;-75
2024/04/04 07:41:20;;;;;;;4.72;2.92;;;;;;;-146.04;100.00;56920.13;4969448;28;20238;-73
2024/04/04 07:43:47;;;;;;;8.52;3.60;;;;;;;-146.04;100.00;56920.13;4969809;28;20671;-73
2024/04/04 07:46:13;;;;;;;8.45;3.35;;;;;;;-146.04;100.00;56920.13;4969309;28;20231;-74
2024/04/04 07:48:42;;;;;;;6.78;4.10;;;;;;;-146.04;100.00;56920.13;4974073;28;20183;-73
2024/04/04 07:51:09;;;;;;;13.70;3.00;;;;;;;-146.04;100.00;56920.13;4970667;28;20236;-73
2024/04/04 07:53:34;;;;;;;4.90;2.85;;;;;;;-146.04;100.00;56920.13;4973513;28;20180;-73
2024/04/04 07:56:00;;;;;;;4.82;3.00;;;;;;;-146.04;100.00;56920.13;4971474;28;20215;-73
2024/04/04 07:58:26;;;;;;;7.70;3.05;;;;;;;-146.04;100.00;56920.13;4969078;28;20243;-73
2024/04/04 08:00:52;;;;;;;6.00;2.80;;;;;;;-146.04;100.00;56920.13;4971956;28;20590;-73
2024/04/04 08:03:17;;;;;;;8.02;3.75;;;;;;;-146.04;100.00;56920.13;4970897;28;20184;-73
2024/04/04 08:05:43;;;;;;;9.77;2.63;;;;;;;-146.04;100.00;56920.13;4951695;28;20298;-72
2024/04/04 08:08:08;;;;;;;5.00;1.98;;;;;;;-146.04;100.00;56920.13;4952125;28;20650;-72
2024/04/04 08:10:35;;;;;;;10.55;2.70;;;;;;;-146.04;100.00;56920.13;4953983;28;20184;-72
2024/04/04 08:13:00;;;;;;;9.52;2.20;;;;;;;-146.04;100.00;56920.13;4944674;28;20275;-73
2024/04/04 08:15:26;;;;;;;6.93;2.95;;;;;;;-146.04;100.00;56920.13;4941248;28;20555;-73
2024/04/04 08:17:51;;;;;;;9.77;2.92;;;;;;;-146.04;100.00;56920.13;4955405;28;20188;-73
2024/04/04 08:20:16;;;;;;;6.45;2.03;;;;;;;-146.04;100.00;56920.13;4949704;28;20275;-73
2024/04/04 08:22:43;;;;;;;8.00;2.47;;;;;;;-146.04;100.00;56920.13;4952794;28;20334;-73
2024/04/04 08:25:09;;;;;;;4.25;2.67;;;;;;;-146.04;100.00;56920.13;4947126;28;20188;-73
2024/04/04 08:27:34;;;;;;;4.13;1.80;;;;;;;-146.04;100.00;56920.13;4947949;28;20200;-73
2024/04/04 08:30:00;;;;;;;7.38;2.17;;;;;;;-146.04;100.00;56920.13;4970340;28;20185;-72
2024/04/04 08:32:25;;;;;;;3.83;2.30;;;;;;;-146.04;100.00;56920.13;4963903;28;20204;-72
2024/04/04 08:34:51;;;;;;;3.33;1.88;;;;;;;-146.04;100.00;56920.13;4965015;28;20294;-71
2024/04/04 08:37:16;;;;;;;5.78;2.05;;;;;;;-146.04;100.00;56920.13;4963927;28;20192;-73
2024/04/04 08:39:42;;;;;;;2.70;1.75;;;;;;;-146.04;100.00;56920.13;4953884;28;20189;-73
2024/04/04 08:42:08;;;;;;;5.47;2.15;;;;;;;-146.04;100.00;56920.13;4948804;28;20227;-73
2024/04/04 08:44:34;;;;;;;5.38;2.20;;;;;;;-146.04;100.00;56920.13;4951562;28;20192;-73
2024/04/04 08:47:00;;;;;;;5.22;1.50;;;;;;;-146.04;100.00;56920.13;4953525;28;20223;-73
2024/04/04 08:49:27;;;;;;;3.92;1.88;;;;;;;-146.04;100.00;56920.13;4947737;28;20459;-73
2024/04/04 08:51:53;;;;;;;4.30;1.52;;;;;;;-146.04;100.00;56920.13;4946073;28;20216;-73
2024/04/04 08:54:21;;;;;;;4.63;1.83;;;;;;;-146.04;100.00;56920.13;4940907;28;20279;-73
2024/04/04 08:56:47;;;;;;;1.55;1.10;;;;;;;-146.04;100.00;56920.13;4948197;28;20264;-72
2024/04/04 08:59:12;;;;;;;2.25;1.13;;;;;;;-146.04;100.00;56920.13;4967826;28;20185;-72
2024/04/04 09:01:37;;;;;;;2.88;1.20;;;;;;;-146.04;100.00;56920.13;4969279;28;20305;-72
2024/04/04 09:04:03;;;;;;;3.60;1.60;;;;;;;-146.04;100.00;56920.13;4968558;28;20218;-72
2024/04/04 09:06:28;;;;;;;2.13;1.25;;;;;;;-146.04;100.00;56920.13;4956409;28;20570;-73
2024/04/04 09:08:58;;;;;;;4.10;1.63;;;;;;;-146.04;100.00;56920.13;4947757;28;20195;-73
2024/04/04 09:11:27;;;;;;;6.07;1.40;;;;;;;-146.04;100.00;56920.13;4950368;28;21500;-74
2024/04/04 09:14:09;;;;;;;5.07;2.20;;;;;;;-146.04;100.00;56920.13;4956487;28;20185;-74
2024/04/04 09:16:41;;;;;;;4.68;1.60;;;;;;;-146.04;100.00;56920.13;4952434;28;20204;-73
2024/04/04 09:19:13;;;;;;;3.30;1.33;;;;;;;-146.04;100.00;56920.13;4948291;28;20282;-73
2024/04/04 09:21:39;;;;;;;2.65;1.05;;;;;;;-146.04;100.00;56920.13;4946682;28;20215;-73
2024/04/04 09:24:08;;;;;;;3.42;1.25;;;;;;;-146.04;100.00;56920.13;4945725;28;20188;-73
2024/04/04 09:26:34;;;;;;;3.42;1.00;;;;;;;-146.04;100.00;56920.13;4950470;28;20256;-72
2024/04/04 09:29:01;;;;;;;5.47;1.33;;;;;;;-146.04;100.00;56920.13;4963487;28;20433;-73
2024/04/04 09:31:28;;;;;;;4.20;1.15;;;;;;;-146.04;100.00;56920.13;4946415;28;20211;-72
2024/04/04 09:33:56;;;;;;;2.47;1.10;;;;;;;-146.04;100.00;56920.13;4948722;28;20216;-73
2024/04/04 09:36:24;;;;;;;3.72;1.52;;;;;;;-146.04;100.00;56920.13;4946666;28;20216;-72
2024/04/04 09:38:53;;;;;;;4.68;1.42;;;;;;;-146.04;100.00;56920.13;4946437;28;20189;-72
2024/04/04 09:41:19;;;;;;;7.63;1.80;;;;;;;-146.04;100.00;56920.13;4946023;28;20279;-73
2024/04/04 09:43:45;;;;;;;1.27;0.95;;;;;;;-146.04;100.00;56920.13;4951983;28;20184;-72
2024/04/04 09:46:14;;;;;;;3.83;1.75;;;;;;;-146.04;100.00;56920.13;4947504;28;20207;-73
2024/04/04 09:48:43;;;;;;;4.45;1.77;;;;;;;-146.04;100.00;56920.13;4950204;28;20900;-73
2024/04/04 09:51:08;;;;;;;4.45;1.42;;;;;;;-146.04;100.00;56920.13;4946150;28;20762;-70
2024/04/04 09:53:36;;;;;;;2.85;1.70;;;;;;;-146.04;100.00;56920.13;4946946;28;20268;-72
2024/04/04 09:56:04;;;;;;;6.07;1.80;;;;;;;-146.04;100.00;56920.13;4947255;28;20632;-72
2024/04/04 09:58:30;;;;;;;3.95;1.55;;;;;;;-146.04;100.00;56920.13;4947432;28;20207;-72
2024/04/04 10:01:09;;;;;;;3.47;0.93;;;;;;;-146.04;100.00;56920.13;4946153;28;20626;-71
2024/04/04 10:03:35;;;;;;;6.65;1.27;;;;;;;-146.04;100.00;56920.13;4948248;28;20615;-71
2024/04/04 10:06:01;;;;;;;8.10;1.70;;;;;;;-146.04;100.00;56920.13;4948359;28;20185;-70
2024/04/04 10:08:29;;;;;;;2.03;0.60;;;;;;;-146.04;100.00;56920.13;4950185;28;20216;-71
2024/04/04 10:11:04;;;;;;;1.80;0.90;;;;;;;-146.04;100.00;56920.13;4947327;28;20239;-71
2024/04/04 10:13:30;;;;;;;9.00;1.30;;;;;;;-146.04;100.00;56920.13;4950866;28;20316;-70
2024/04/04 10:15:57;;;;;;;7.43;1.50;;;;;;;-146.04;100.00;56920.13;4946507;28;20318;-71
2024/04/04 10:18:22;;;;;;;6.35;1.15;;;;;;;-146.04;100.00;56920.13;4951449;28;20184;-70
2024/04/04 10:20:55;;;;;;;3.85;0.80;;;;;;;-146.04;100.00;56920.13;4957572;28;20247;-71
2024/04/04 10:23:28;;;;;;;3.42;1.33;;;;;;;-146.04;100.00;56920.13;4961157;28;20184;-70
2024/04/04 10:26:07;;;;;;;4.97;1.17;;;;;;;-146.04;100.00;56920.13;4957666;28;20196;-69
2024/04/04 10:28:33;;;;;;;1.63;1.08;;;;;;;-146.04;100.00;56920.13;4963583;28;20196;-70
2024/04/04 10:30:58;;;;;;;5.95;0.77;;;;;;;-146.04;100.00;56920.13;4957592;28;20213;-71
2024/04/04 10:33:24;;;;;;;3.22;0.60;;;;;;;-146.04;100.00;56920.13;4965632;28;20176;-69
2024/04/04 10:36:01;;;;;;;3.30;0.90;;;;;;;-146.04;100.00;56920.13;4964165;28;20283;-70
2024/04/04 10:38:26;;;;;;;2.70;0.40;;;;;;;-146.04;100.00;56920.13;4961147;28;20184;-70
2024/04/04 10:40:55;;;;;;;3.83;0.70;;;;;;;-146.04;100.00;56920.13;4959460;28;20271;-69
2024/04/04 10:43:21;;;;;;;5.72;0.90;;;;;;;-146.04;100.00;56920.13;4964752;28;20252;-70
2024/04/04 10:45:46;;;;;;;4.35;1.10;;;;;;;-146.04;100.00;56920.13;4964054;28;20188;-69
2024/04/04 10:48:12;;;;;;;7.88;1.17;;;;;;;-146.04;100.00;56920.13;4968252;28;20188;-70
2024/04/04 10:50:37;;;;;;;5.40;1.30;;;;;;;-146.04;100.00;56920.13;4971245;28;20272;-70
2024/04/04 10:53:04;;;;;;;4.45;1.52;;;;;;;-146.04;100.00;56920.13;4967981;28;20192;-70
2024/04/04 10:55:31;;;;;;;2.83;0.85;;;;;;;-146.04;100.00;56920.13;4968596;28;20230;-70
2024/04/04 10:57:57;;;;;;;4.80;1.23;;;;;;;-146.04;100.00;56920.13;4964962;28;20191;-70
2024/04/04 11:00:28;;;;;;;6.68;1.50;;;;;;;-146.04;100.00;56920.13;4966076;28;20180;-70
2024/04/04 11:02:54;;;;;;;5.03;2.05;;;;;;;-146.04;100.00;56920.13;4962239;28;20217;-71
2024/04/04 11:05:20;;;;;;;10.68;1.50;;;;;;;-146.04;100.00;56920.13;4961980;28;20177;-71